sensor_id;sensor_type;location;lat;lon;timestamp;pressure;altitude;pressure_sealevel;temperature;humidity
75617;BME280;64200;55.426;37.758;2022-12-18T00:01:39;98635.63;;;-3.82;77.28
75617;BME280;64200;55.426;37.758;2022-12-18T00:06:40;98627.88;;;-3.88;77.48
75617;BME280;64200;55.426;37.758;2022-12-18T00:11:41;98620.84;;;-3.89;77.62
75617;BME280;64200;55.426;37.758;2022-12-18T00:16:45;98615.03;;;-3.94;78.07
75617;BME280;64200;55.426;37.758;2022-12-18T00:21:46;98611.53;;;-3.88;77.45
75617;BME280;64200;55.426;37.758;2022-12-18T00:26:46;98603.75;;;-3.93;77.26
75617;BME280;64200;55.426;37.758;2022-12-18T00:31:47;98603.75;;;-3.93;77.15
75617;BME280;64200;55.426;37.758;2022-12-18T00:36:48;98596.34;;;-3.89;77.43
75617;BME280;64200;55.426;37.758;2022-12-18T00:41:49;98591.69;;;-3.92;77.65
75617;BME280;64200;55.426;37.758;2022-12-18T00:47:08;98590.13;;;-3.89;77.44
75617;BME280;64200;55.426;37.758;2022-12-18T00:52:08;98571.41;;;-3.87;77.22
75617;BME280;64200;55.426;37.758;2022-12-18T00:57:09;98562.09;;;-3.97;76.88
75617;BME280;64200;55.426;37.758;2022-12-18T01:02:09;98549.28;;;-4.00;76.85
75617;BME280;64200;55.426;37.758;2022-12-18T01:07:10;98547.31;;;-3.96;76.51
75617;BME280;64200;55.426;37.758;2022-12-18T01:12:10;98531.75;;;-3.92;76.49
75617;BME280;64200;55.426;37.758;2022-12-18T01:17:11;98516.56;;;-3.93;76.68
75617;BME280;64200;55.426;37.758;2022-12-18T01:22:11;98513.06;;;-3.93;76.51
75617;BME280;64200;55.426;37.758;2022-12-18T01:27:12;98509.22;;;-4.03;77.22
75617;BME280;64200;55.426;37.758;2022-12-18T01:32:12;98504.16;;;-4.01;76.97
75617;BME280;64200;55.426;37.758;2022-12-18T01:37:13;98515.38;;;-3.88;76.82
75617;BME280;64200;55.426;37.758;2022-12-18T01:42:15;98510.69;;;-3.84;76.61
75617;BME280;64200;55.426;37.758;2022-12-18T01:52:31;98502.91;;;-3.85;76.05
75617;BME280;64200;55.426;37.758;2022-12-18T01:57:33;98499.81;;;-3.88;76.09
75617;BME280;64200;55.426;37.758;2022-12-18T02:02:34;98496.38;;;-3.95;75.97
75617;BME280;64200;55.426;37.758;2022-12-18T02:07:58;98493.19;;;-3.86;76.29
75617;BME280;64200;55.426;37.758;2022-12-18T02:13:49;98486.97;;;-3.87;75.93
75617;BME280;64200;55.426;37.758;2022-12-18T02:18:58;98503.28;;;-3.83;75.62
75617;BME280;64200;55.426;37.758;2022-12-18T02:29:10;98511.84;;;-3.85;75.79
75617;BME280;64200;55.426;37.758;2022-12-18T02:34:13;98500.56;;;-3.83;75.38
75617;BME280;64200;55.426;37.758;2022-12-18T02:39:15;98500.56;;;-3.80;75.35
75617;BME280;64200;55.426;37.758;2022-12-18T02:44:16;98517.63;;;-3.72;75.64
75617;BME280;64200;55.426;37.758;2022-12-18T02:54:27;98512.53;;;-3.63;75.89
75617;BME280;64200;55.426;37.758;2022-12-18T02:59:40;98520.72;;;-3.66;75.19
75617;BME280;64200;55.426;37.758;2022-12-18T03:05:00;98514.44;;;-3.60;75.14
75617;BME280;64200;55.426;37.758;2022-12-18T03:10:02;98519.94;;;-3.63;74.83
75617;BME280;64200;55.426;37.758;2022-12-18T03:15:13;98512.19;;;-3.68;75.33
75617;BME280;64200;55.426;37.758;2022-12-18T03:20:19;98491.56;;;-3.73;75.04
75617;BME280;64200;55.426;37.758;2022-12-18T03:25:21;98487.66;;;-3.72;75.07
75617;BME280;64200;55.426;37.758;2022-12-18T03:30:22;98513.28;;;-3.59;75.16
75617;BME280;64200;55.426;37.758;2022-12-18T03:35:30;98514.44;;;-3.56;74.54
75617;BME280;64200;55.426;37.758;2022-12-18T03:56:29;98524.25;;;-3.69;73.93
75617;BME280;64200;55.426;37.758;2022-12-18T04:01:34;98526.94;;;-3.66;73.63
75617;BME280;64200;55.426;37.758;2022-12-18T04:06:36;98534.06;;;-3.86;73.01
75617;BME280;64200;55.426;37.758;2022-12-18T04:11:37;98553.88;;;-3.79;72.83
75617;BME280;64200;55.426;37.758;2022-12-18T04:16:39;98566.75;;;-3.83;72.91
75617;BME280;64200;55.426;37.758;2022-12-18T04:21:40;98577.25;;;-3.85;72.90
75617;BME280;64200;55.426;37.758;2022-12-18T04:26:40;98581.56;;;-3.88;72.49
75617;BME280;64200;55.426;37.758;2022-12-18T04:31:41;98582.72;;;-3.89;72.34
75617;BME280;64200;55.426;37.758;2022-12-18T04:36:42;98585.81;;;-3.86;72.36
75617;BME280;64200;55.426;37.758;2022-12-18T04:41:42;98584.66;;;-3.82;72.97
75617;BME280;64200;55.426;37.758;2022-12-18T04:46:43;98604.09;;;-3.83;72.58
75617;BME280;64200;55.426;37.758;2022-12-18T04:51:43;98619.25;;;-3.75;72.77
75617;BME280;64200;55.426;37.758;2022-12-18T04:56:44;98623.97;;;-3.83;71.72
75617;BME280;64200;55.426;37.758;2022-12-18T05:01:45;98627.06;;;-3.84;72.48
75617;BME280;64200;55.426;37.758;2022-12-18T05:06:46;98628.63;;;-3.87;72.11
75617;BME280;64200;55.426;37.758;2022-12-18T05:11:46;98653.56;;;-3.89;71.90
75617;BME280;64200;55.426;37.758;2022-12-18T05:16:47;98655.91;;;-3.91;71.65
75617;BME280;64200;55.426;37.758;2022-12-18T05:21:47;98641.88;;;-3.93;72.00
75617;BME280;64200;55.426;37.758;2022-12-18T05:26:48;98654.75;;;-4.04;72.31
75617;BME280;64200;55.426;37.758;2022-12-18T05:31:51;98680.81;;;-3.99;72.43
75617;BME280;64200;55.426;37.758;2022-12-18T05:36:51;98683.94;;;-3.94;72.70
75617;BME280;64200;55.426;37.758;2022-12-18T05:41:52;98685.06;;;-3.84;72.30
75617;BME280;64200;55.426;37.758;2022-12-18T05:46:53;98683.13;;;-3.94;71.48
75617;BME280;64200;55.426;37.758;2022-12-18T05:51:53;98687.78;;;-3.91;72.59
75617;BME280;64200;55.426;37.758;2022-12-18T05:56:54;98704.94;;;-3.98;71.72
75617;BME280;64200;55.426;37.758;2022-12-18T06:01:54;98721.28;;;-3.91;71.48
75617;BME280;64200;55.426;37.758;2022-12-18T06:06:55;98717.00;;;-3.92;71.51
75617;BME280;64200;55.426;37.758;2022-12-18T06:11:55;98711.91;;;-3.90;71.64
75617;BME280;64200;55.426;37.758;2022-12-18T06:16:56;98733.72;;;-3.75;71.21
75617;BME280;64200;55.426;37.758;2022-12-18T06:21:57;98764.84;;;-3.76;71.13
75617;BME280;64200;55.426;37.758;2022-12-18T06:26:59;98775.34;;;-3.75;71.46
75617;BME280;64200;55.426;37.758;2022-12-18T06:31:59;98782.34;;;-3.63;70.85
75617;BME280;64200;55.426;37.758;2022-12-18T06:37:00;98808.06;;;-3.60;71.00
75617;BME280;64200;55.426;37.758;2022-12-18T06:42:03;98798.31;;;-3.58;70.04
75617;BME280;64200;55.426;37.758;2022-12-18T06:47:04;98819.72;;;-3.53;70.53
75617;BME280;64200;55.426;37.758;2022-12-18T06:52:04;98832.97;;;-3.62;69.77
75617;BME280;64200;55.426;37.758;2022-12-18T06:57:05;98829.88;;;-3.71;69.72
75617;BME280;64200;55.426;37.758;2022-12-18T07:02:06;98836.88;;;-3.74;70.09
75617;BME280;64200;55.426;37.758;2022-12-18T07:07:06;98837.25;;;-3.64;69.62
75617;BME280;64200;55.426;37.758;2022-12-18T07:12:07;98854.41;;;-3.64;69.31
75617;BME280;64200;55.426;37.758;2022-12-18T07:17:08;98870.75;;;-3.57;69.43
75617;BME280;64200;55.426;37.758;2022-12-18T07:22:08;98878.53;;;-3.51;69.68
75617;BME280;64200;55.426;37.758;2022-12-18T07:27:09;98886.72;;;-3.37;68.71
75617;BME280;64200;55.426;37.758;2022-12-18T07:32:09;98892.94;;;-3.37;68.77
75617;BME280;64200;55.426;37.758;2022-12-18T07:37:10;98895.69;;;-3.33;69.21
75617;BME280;64200;55.426;37.758;2022-12-18T07:42:11;98903.84;;;-3.26;68.04
75617;BME280;64200;55.426;37.758;2022-12-18T07:47:30;98915.94;;;-3.27;68.59
75617;BME280;64200;55.426;37.758;2022-12-18T07:52:30;98927.22;;;-3.25;68.38
75617;BME280;64200;55.426;37.758;2022-12-18T07:57:31;98926.84;;;-3.20;68.24
75617;BME280;64200;55.426;37.758;2022-12-18T08:02:31;98938.91;;;-3.06;68.32
75617;BME280;64200;55.426;37.758;2022-12-18T08:07:32;98956.06;;;-3.16;66.93
75617;BME280;64200;55.426;37.758;2022-12-18T08:12:32;98966.97;;;-3.06;68.29
75617;BME280;64200;55.426;37.758;2022-12-18T08:17:33;98958.78;;;-3.09;67.23
75617;BME280;64200;55.426;37.758;2022-12-18T08:22:37;98951.38;;;-3.02;66.94
75617;BME280;64200;55.426;37.758;2022-12-18T08:27:38;98973.59;;;-3.03;66.89
75617;BME280;64200;55.426;37.758;2022-12-18T08:32:38;98980.59;;;-2.95;67.06
75617;BME280;64200;55.426;37.758;2022-12-18T08:37:39;98980.22;;;-2.97;66.25
75617;BME280;64200;55.426;37.758;2022-12-18T08:42:39;98985.28;;;-3.21;67.17
75617;BME280;64200;55.426;37.758;2022-12-18T08:47:58;98995.03;;;-3.16;66.30
75617;BME280;64200;55.426;37.758;2022-12-18T08:53:00;98998.53;;;-3.12;66.41
75617;BME280;64200;55.426;37.758;2022-12-18T08:58:01;99023.47;;;-3.10;66.19
75617;BME280;64200;55.426;37.758;2022-12-18T09:03:01;99029.72;;;-2.98;65.95
75617;BME280;64200;55.426;37.758;2022-12-18T09:08:02;99030.09;;;-3.04;65.71
75617;BME280;64200;55.426;37.758;2022-12-18T09:13:02;99031.66;;;-3.06;65.98
75617;BME280;64200;55.426;37.758;2022-12-18T09:18:03;99055.06;;;-2.94;66.27
75617;BME280;64200;55.426;37.758;2022-12-18T09:23:04;99051.53;;;-2.95;65.56
75617;BME280;64200;55.426;37.758;2022-12-18T09:28:10;99067.16;;;-2.99;66.03
75617;BME280;64200;55.426;37.758;2022-12-18T09:33:11;99067.13;;;-2.95;65.46
75617;BME280;64200;55.426;37.758;2022-12-18T09:38:14;99065.56;;;-3.00;65.25
75617;BME280;64200;55.426;37.758;2022-12-18T09:43:29;99076.88;;;-3.02;66.08
75617;BME280;64200;55.426;37.758;2022-12-18T09:48:40;99078.81;;;-3.02;65.86
75617;BME280;64200;55.426;37.758;2022-12-18T09:53:50;99078.03;;;-3.06;65.75
75617;BME280;64200;55.426;37.758;2022-12-18T09:58:59;99087.41;;;-2.93;65.76
75617;BME280;64200;55.426;37.758;2022-12-18T10:04:00;99094.41;;;-3.03;65.58
75617;BME280;64200;55.426;37.758;2022-12-18T10:09:28;99105.34;;;-2.99;66.49
75617;BME280;64200;55.426;37.758;2022-12-18T10:25:17;99109.66;;;-2.73;66.16
75617;BME280;64200;55.426;37.758;2022-12-18T10:30:22;99118.25;;;-2.71;66.69
75617;BME280;64200;55.426;37.758;2022-12-18T10:35:26;99115.91;;;-2.72;66.80
75617;BME280;64200;55.426;37.758;2022-12-18T10:40:27;99132.66;;;-2.67;66.89
75617;BME280;64200;55.426;37.758;2022-12-18T10:45:28;99153.34;;;-2.76;67.26
75617;BME280;64200;55.426;37.758;2022-12-18T10:50:31;99179.47;;;-2.65;66.96
75617;BME280;64200;55.426;37.758;2022-12-18T10:55:38;99180.25;;;-2.60;67.72
75617;BME280;64200;55.426;37.758;2022-12-18T11:00:39;99189.63;;;-2.61;67.08
75617;BME280;64200;55.426;37.758;2022-12-18T11:05:41;99180.66;;;-2.62;67.33
75617;BME280;64200;55.426;37.758;2022-12-18T11:10:46;99178.69;;;-2.69;68.23
75617;BME280;64200;55.426;37.758;2022-12-18T11:15:48;99181.41;;;-2.72;68.28
75617;BME280;64200;55.426;37.758;2022-12-18T11:20:54;99183.31;;;-2.80;68.72
75617;BME280;64200;55.426;37.758;2022-12-18T11:25:58;99190.75;;;-2.77;68.54
75617;BME280;64200;55.426;37.758;2022-12-18T11:31:32;99201.25;;;-2.86;68.35
75617;BME280;64200;55.426;37.758;2022-12-18T11:36:36;99212.94;;;-2.89;68.50
75617;BME280;64200;55.426;37.758;2022-12-18T11:41:50;99211.78;;;-2.88;68.94
75617;BME280;64200;55.426;37.758;2022-12-18T11:52:38;99239.44;;;-2.93;68.66
75617;BME280;64200;55.426;37.758;2022-12-18T11:57:57;99250.75;;;-2.98;69.33
75617;BME280;64200;55.426;37.758;2022-12-18T12:39:21;99318.91;;;-3.06;69.93
75617;BME280;64200;55.426;37.758;2022-12-18T12:44:27;99330.28;;;-2.93;69.84
75617;BME280;64200;55.426;37.758;2022-12-18T12:49:31;99331.47;;;-2.90;70.28
75617;BME280;64200;55.426;37.758;2022-12-18T12:54:34;99336.91;;;-2.94;69.70
75617;BME280;64200;55.426;37.758;2022-12-18T13:15:22;99383.63;;;-3.03;70.03
75617;BME280;64200;55.426;37.758;2022-12-18T13:20:33;99383.22;;;-3.08;69.54
75617;BME280;64200;55.426;37.758;2022-12-18T13:25:36;99400.38;;;-3.08;69.94
75617;BME280;64200;55.426;37.758;2022-12-18T13:50:59;99450.78;;;-2.91;70.40
75617;BME280;64200;55.426;37.758;2022-12-18T13:56:02;99458.78;;;-3.12;70.47
75617;BME280;64200;55.426;37.758;2022-12-18T14:01:03;99475.16;;;-3.12;71.12
75617;BME280;64200;55.426;37.758;2022-12-18T14:06:08;99481.53;;;-2.94;70.97
75617;BME280;64200;55.426;37.758;2022-12-18T14:11:22;99497.56;;;-2.89;70.57
75617;BME280;64200;55.426;37.758;2022-12-18T14:16:23;99498.31;;;-2.95;70.99
75617;BME280;64200;55.426;37.758;2022-12-18T14:21:30;99502.34;;;-3.23;70.92
75617;BME280;64200;55.426;37.758;2022-12-18T14:26:33;99521.50;;;-3.16;71.19
75617;BME280;64200;55.426;37.758;2022-12-18T14:31:33;99519.16;;;-3.18;71.11
75617;BME280;64200;55.426;37.758;2022-12-18T14:36:34;99526.25;;;-3.09;70.35
75617;BME280;64200;55.426;37.758;2022-12-18T14:41:34;99536.66;;;-3.22;70.12
75617;BME280;64200;55.426;37.758;2022-12-18T14:46:39;99540.59;;;-3.16;70.71
75617;BME280;64200;55.426;37.758;2022-12-18T14:51:47;99548.78;;;-3.20;71.40
75617;BME280;64200;55.426;37.758;2022-12-18T14:56:51;99567.38;;;-3.29;71.70
75617;BME280;64200;55.426;37.758;2022-12-18T15:12:43;99579.25;;;-3.10;70.86
75617;BME280;64200;55.426;37.758;2022-12-18T15:17:44;99589.41;;;-3.11;71.29
75617;BME280;64200;55.426;37.758;2022-12-18T15:22:47;99601.78;;;-3.17;71.01
75617;BME280;64200;55.426;37.758;2022-12-18T15:27:47;99616.69;;;-3.11;70.97
75617;BME280;64200;55.426;37.758;2022-12-18T15:32:52;99615.41;;;-3.17;69.82
75617;BME280;64200;55.426;37.758;2022-12-18T15:38:12;99619.91;;;-3.36;69.66
75617;BME280;64200;55.426;37.758;2022-12-18T15:43:12;99628.25;;;-3.55;69.61
75617;BME280;64200;55.426;37.758;2022-12-18T15:48:38;99659.84;;;-3.50;69.26
75617;BME280;64200;55.426;37.758;2022-12-18T15:53:40;99663.44;;;-3.46;69.63
75617;BME280;64200;55.426;37.758;2022-12-18T15:58:40;99654.44;;;-3.47;68.90
75617;BME280;64200;55.426;37.758;2022-12-18T16:03:41;99667.25;;;-3.51;68.72
75617;BME280;64200;55.426;37.758;2022-12-18T16:08:42;99683.19;;;-3.53;69.29
75617;BME280;64200;55.426;37.758;2022-12-18T16:13:42;99693.34;;;-3.50;69.65
75617;BME280;64200;55.426;37.758;2022-12-18T16:18:43;99705.78;;;-3.53;69.27
75617;BME280;64200;55.426;37.758;2022-12-18T16:23:43;99705.69;;;-3.60;69.06
75617;BME280;64200;55.426;37.758;2022-12-18T16:28:44;99721.97;;;-3.67;69.13
75617;BME280;64200;55.426;37.758;2022-12-18T16:33:44;99718.66;;;-3.80;68.25
75617;BME280;64200;55.426;37.758;2022-12-18T16:38:45;99740.03;;;-3.82;68.72
75617;BME280;64200;55.426;37.758;2022-12-18T16:43:45;99747.50;;;-3.79;68.35
75617;BME280;64200;55.426;37.758;2022-12-18T16:48:46;99754.75;;;-3.86;67.94
75617;BME280;64200;55.426;37.758;2022-12-18T16:53:46;99752.63;;;-3.97;68.30
75617;BME280;64200;55.426;37.758;2022-12-18T16:58:55;99774.63;;;-4.09;68.37
75617;BME280;64200;55.426;37.758;2022-12-18T17:03:58;99777.09;;;-4.24;68.02
75617;BME280;64200;55.426;37.758;2022-12-18T17:09:05;99781.03;;;-4.21;68.08
75617;BME280;64200;55.426;37.758;2022-12-18T17:14:10;99786.44;;;-4.25;68.10
75617;BME280;64200;55.426;37.758;2022-12-18T17:19:12;99801.59;;;-4.24;68.63
75617;BME280;64200;55.426;37.758;2022-12-18T17:24:13;99811.22;;;-4.30;68.40
75617;BME280;64200;55.426;37.758;2022-12-18T17:29:17;99810.91;;;-4.48;68.54
75617;BME280;64200;55.426;37.758;2022-12-18T17:34:18;99813.94;;;-4.53;68.44
75617;BME280;64200;55.426;37.758;2022-12-18T17:39:21;99821.22;;;-4.57;68.40
75617;BME280;64200;55.426;37.758;2022-12-18T17:44:21;99830.25;;;-4.72;67.69
75617;BME280;64200;55.426;37.758;2022-12-18T17:49:22;99859.81;;;-4.90;67.68
75617;BME280;64200;55.426;37.758;2022-12-18T17:54:22;99865.44;;;-4.99;68.03
75617;BME280;64200;55.426;37.758;2022-12-18T17:59:23;99880.13;;;-5.20;67.49
75617;BME280;64200;55.426;37.758;2022-12-18T18:04:23;99882.44;;;-5.38;66.69
75617;BME280;64200;55.426;37.758;2022-12-18T18:09:24;99888.53;;;-5.60;67.33
75617;BME280;64200;55.426;37.758;2022-12-18T18:14:24;99889.75;;;-5.74;67.25
75617;BME280;64200;55.426;37.758;2022-12-18T18:19:26;99892.88;;;-5.88;67.56
75617;BME280;64200;55.426;37.758;2022-12-18T18:24:28;99914.88;;;-5.93;66.74
75617;BME280;64200;55.426;37.758;2022-12-18T18:29:28;99918.09;;;-6.03;66.93
75617;BME280;64200;55.426;37.758;2022-12-18T18:34:32;99935.34;;;-6.11;66.91
75617;BME280;64200;55.426;37.758;2022-12-18T18:39:33;99936.47;;;-6.41;67.11
75617;BME280;64200;55.426;37.758;2022-12-18T18:44:33;99945.97;;;-6.47;67.79
75617;BME280;64200;55.426;37.758;2022-12-18T18:49:34;99964.19;;;-6.47;67.57
75617;BME280;64200;55.426;37.758;2022-12-18T18:54:35;99953.06;;;-6.71;67.57
75617;BME280;64200;55.426;37.758;2022-12-18T18:59:35;99965.38;;;-6.85;67.78
75617;BME280;64200;55.426;37.758;2022-12-18T19:04:36;99987.88;;;-6.85;68.06
75617;BME280;64200;55.426;37.758;2022-12-18T19:09:36;99982.91;;;-6.95;67.77
75617;BME280;64200;55.426;37.758;2022-12-18T19:14:37;99976.34;;;-7.19;67.65
75617;BME280;64200;55.426;37.758;2022-12-18T19:19:38;100015.09;;;-7.18;67.80
75617;BME280;64200;55.426;37.758;2022-12-18T19:24:39;100020.06;;;-7.20;67.62
75617;BME280;64200;55.426;37.758;2022-12-18T19:29:39;100041.38;;;-7.31;67.61
75617;BME280;64200;55.426;37.758;2022-12-18T19:34:40;100032.53;;;-7.53;67.13
75617;BME280;64200;55.426;37.758;2022-12-18T19:39:41;100055.66;;;-7.55;67.16
75617;BME280;64200;55.426;37.758;2022-12-18T19:44:41;100060.13;;;-7.60;67.16
75617;BME280;64200;55.426;37.758;2022-12-18T19:49:42;100050.59;;;-7.78;67.80
75617;BME280;64200;55.426;37.758;2022-12-18T19:54:42;100078.94;;;-7.75;66.89
75617;BME280;64200;55.426;37.758;2022-12-18T19:59:43;100080.34;;;-7.90;67.32
75617;BME280;64200;55.426;37.758;2022-12-18T20:04:43;100088.72;;;-8.04;67.26
75617;BME280;64200;55.426;37.758;2022-12-18T20:09:44;100085.72;;;-8.12;67.22
75617;BME280;64200;55.426;37.758;2022-12-18T20:14:44;100097.59;;;-8.25;67.31
75617;BME280;64200;55.426;37.758;2022-12-18T20:19:45;100109.72;;;-8.52;67.71
75617;BME280;64200;55.426;37.758;2022-12-18T20:24:45;100109.28;;;-8.63;68.04
75617;BME280;64200;55.426;37.758;2022-12-18T20:29:46;100112.66;;;-8.75;67.98
75617;BME280;64200;55.426;37.758;2022-12-18T20:34:47;100131.09;;;-8.68;67.54
75617;BME280;64200;55.426;37.758;2022-12-18T20:39:48;100128.72;;;-8.70;68.20
75617;BME280;64200;55.426;37.758;2022-12-18T20:44:50;100129.72;;;-8.83;68.28
75617;BME280;64200;55.426;37.758;2022-12-18T20:49:51;100119.72;;;-8.91;67.99
75617;BME280;64200;55.426;37.758;2022-12-18T20:54:52;100122.72;;;-8.84;68.34
75617;BME280;64200;55.426;37.758;2022-12-18T20:59:52;100124.59;;;-8.67;68.46
75617;BME280;64200;55.426;37.758;2022-12-18T21:04:53;100146.53;;;-8.69;68.45
75617;BME280;64200;55.426;37.758;2022-12-18T21:09:55;100144.50;;;-8.72;68.61
75617;BME280;64200;55.426;37.758;2022-12-18T21:14:56;100152.75;;;-8.77;67.67
75617;BME280;64200;55.426;37.758;2022-12-18T21:20:00;100163.91;;;-8.78;67.86
75617;BME280;64200;55.426;37.758;2022-12-18T21:25:03;100172.34;;;-8.89;67.80
75617;BME280;64200;55.426;37.758;2022-12-18T21:30:04;100168.56;;;-8.96;68.07
75617;BME280;64200;55.426;37.758;2022-12-18T21:35:05;100181.00;;;-9.04;68.36
75617;BME280;64200;55.426;37.758;2022-12-18T21:40:06;100188.59;;;-8.97;68.38
75617;BME280;64200;55.426;37.758;2022-12-18T21:45:07;100189.88;;;-9.04;68.44
75617;BME280;64200;55.426;37.758;2022-12-18T21:50:08;100200.22;;;-9.14;67.90
75617;BME280;64200;55.426;37.758;2022-12-18T21:55:09;100193.22;;;-9.24;68.48
75617;BME280;64200;55.426;37.758;2022-12-18T22:00:11;100187.06;;;-9.42;68.37
75617;BME280;64200;55.426;37.758;2022-12-18T22:05:12;100194.19;;;-9.46;68.22
75617;BME280;64200;55.426;37.758;2022-12-18T22:10:13;100206.59;;;-9.45;68.62
75617;BME280;64200;55.426;37.758;2022-12-18T22:15:13;100207.38;;;-9.45;68.74
75617;BME280;64200;55.426;37.758;2022-12-18T22:20:14;100223.75;;;-9.41;68.50
75617;BME280;64200;55.426;37.758;2022-12-18T22:25:15;100226.25;;;-9.62;68.00
75617;BME280;64200;55.426;37.758;2022-12-18T22:30:15;100226.84;;;-9.83;67.81
75617;BME280;64200;55.426;37.758;2022-12-18T22:35:16;100220.19;;;-9.85;68.06
75617;BME280;64200;55.426;37.758;2022-12-18T22:40:22;100216.47;;;-10.07;69.02
75617;BME280;64200;55.426;37.758;2022-12-18T22:45:24;100228.06;;;-10.07;68.92
75617;BME280;64200;55.426;37.758;2022-12-18T22:50:26;100227.97;;;-9.93;68.34
75617;BME280;64200;55.426;37.758;2022-12-18T22:55:26;100228.59;;;-9.96;68.09
75617;BME280;64200;55.426;37.758;2022-12-18T23:00:27;100238.13;;;-9.90;68.61
75617;BME280;64200;55.426;37.758;2022-12-18T23:05:29;100250.34;;;-9.92;67.96
75617;BME280;64200;55.426;37.758;2022-12-18T23:10:29;100253.63;;;-10.04;68.98
75617;BME280;64200;55.426;37.758;2022-12-18T23:15:31;100246.66;;;-10.05;68.50
75617;BME280;64200;55.426;37.758;2022-12-18T23:20:33;100248.81;;;-10.16;68.72
75617;BME280;64200;55.426;37.758;2022-12-18T23:25:34;100251.09;;;-10.09;69.19
75617;BME280;64200;55.426;37.758;2022-12-18T23:30:34;100272.78;;;-10.14;68.95
75617;BME280;64200;55.426;37.758;2022-12-18T23:35:35;100270.41;;;-10.16;68.89
75617;BME280;64200;55.426;37.758;2022-12-18T23:40:35;100280.22;;;-10.20;69.48
75617;BME280;64200;55.426;37.758;2022-12-18T23:45:36;100287.41;;;-10.07;69.76
75617;BME280;64200;55.426;37.758;2022-12-18T23:50:37;100295.16;;;-10.22;70.03
75617;BME280;64200;55.426;37.758;2022-12-18T23:55:40;100302.66;;;-10.11;70.77
